sensor_id;sensor_type;location;lat;lon;timestamp;P1;P2;P0
73623;PMS5003;61921;53.226;-1.296;2022-11-20T00:00:30;55;50;
73623;PMS5003;61921;53.226;-1.296;2022-11-20T00:02:55;45;42;
73623;PMS5003;61921;53.226;-1.296;2022-11-20T00:05:21;46;43;
73623;PMS5003;61921;53.226;-1.296;2022-11-20T00:07:47;50;46;
73623;PMS5003;61921;53.226;-1.296;2022-11-20T00:10:13;50;43;
73623;PMS5003;61921;53.226;-1.296;2022-11-20T00:12:38;52;45;
73623;PMS5003;61921;53.226;-1.296;2022-11-20T00:15:04;46;43;
73623;PMS5003;61921;53.226;-1.296;2022-11-20T00:17:29;42;41;
73623;PMS5003;61921;53.226;-1.296;2022-11-20T00:19:54;42;42;
73623;PMS5003;61921;53.226;-1.296;2022-11-20T00:22:20;50;47;
73623;PMS5003;61921;53.226;-1.296;2022-11-20T00:24:46;46;40;
73623;PMS5003;61921;53.226;-1.296;2022-11-20T00:27:11;51;46;
73623;PMS5003;61921;53.226;-1.296;2022-11-20T00:29:37;45;42;
73623;PMS5003;61921;53.226;-1.296;2022-11-20T00:32:02;41;39;
73623;PMS5003;61921;53.226;-1.296;2022-11-20T00:34:27;45;42;
73623;PMS5003;61921;53.226;-1.296;2022-11-20T00:36:53;43;39;
73623;PMS5003;61921;53.226;-1.296;2022-11-20T00:39:20;42;40;
73623;PMS5003;61921;53.226;-1.296;2022-11-20T00:41:45;38;31;
73623;PMS5003;61921;53.226;-1.296;2022-11-20T00:44:10;37;34;
73623;PMS5003;61921;53.226;-1.296;2022-11-20T00:46:35;42;36;
73623;PMS5003;61921;53.226;-1.296;2022-11-20T00:49:00;44;40;
73623;PMS5003;61921;53.226;-1.296;2022-11-20T00:51:26;44;39;
73623;PMS5003;61921;53.226;-1.296;2022-11-20T00:53:51;46;38;
73623;PMS5003;61921;53.226;-1.296;2022-11-20T00:56:17;37;34;
73623;PMS5003;61921;53.226;-1.296;2022-11-20T00:58:43;40;36;
73623;PMS5003;61921;53.226;-1.296;2022-11-20T01:01:09;41;36;
73623;PMS5003;61921;53.226;-1.296;2022-11-20T01:03:34;46;38;
73623;PMS5003;61921;53.226;-1.296;2022-11-20T01:05:59;43;36;
73623;PMS5003;61921;53.226;-1.296;2022-11-20T01:08:25;37;37;
73623;PMS5003;61921;53.226;-1.296;2022-11-20T01:10:50;54;44;
73623;PMS5003;61921;53.226;-1.296;2022-11-20T01:13:16;40;36;
73623;PMS5003;61921;53.226;-1.296;2022-11-20T01:15:41;42;39;
73623;PMS5003;61921;53.226;-1.296;2022-11-20T01:18:07;49;41;
73623;PMS5003;61921;53.226;-1.296;2022-11-20T01:20:34;49;41;
73623;PMS5003;61921;53.226;-1.296;2022-11-20T01:22:58;46;42;
73623;PMS5003;61921;53.226;-1.296;2022-11-20T01:25:23;40;37;
73623;PMS5003;61921;53.226;-1.296;2022-11-20T01:27:49;44;40;
73623;PMS5003;61921;53.226;-1.296;2022-11-20T01:30:15;37;35;
73623;PMS5003;61921;53.226;-1.296;2022-11-20T01:32:41;42;39;
73623;PMS5003;61921;53.226;-1.296;2022-11-20T01:35:06;33;33;
73623;PMS5003;61921;53.226;-1.296;2022-11-20T01:37:32;44;36;
73623;PMS5003;61921;53.226;-1.296;2022-11-20T01:39:57;35;29;
73623;PMS5003;61921;53.226;-1.296;2022-11-20T01:42:23;42;37;
73623;PMS5003;61921;53.226;-1.296;2022-11-20T01:44:56;37;34;
73623;PMS5003;61921;53.226;-1.296;2022-11-20T01:47:16;39;36;
73623;PMS5003;61921;53.226;-1.296;2022-11-20T01:49:40;41;38;
73623;PMS5003;61921;53.226;-1.296;2022-11-20T01:52:07;42;38;
73623;PMS5003;61921;53.226;-1.296;2022-11-20T01:54:32;41;38;
73623;PMS5003;61921;53.226;-1.296;2022-11-20T01:56:57;43;38;
73623;PMS5003;61921;53.226;-1.296;2022-11-20T01:59:22;42;38;
73623;PMS5003;61921;53.226;-1.296;2022-11-20T02:01:48;51;41;
73623;PMS5003;61921;53.226;-1.296;2022-11-20T02:04:13;42;35;
73623;PMS5003;61921;53.226;-1.296;2022-11-20T02:06:40;38;34;
73623;PMS5003;61921;53.226;-1.296;2022-11-20T02:09:04;29;27;
73623;PMS5003;61921;53.226;-1.296;2022-11-20T02:11:34;39;34;
73623;PMS5003;61921;53.226;-1.296;2022-11-20T02:13:55;32;27;
73623;PMS5003;61921;53.226;-1.296;2022-11-20T02:16:22;39;35;
73623;PMS5003;61921;53.226;-1.296;2022-11-20T02:18:46;36;29;
73623;PMS5003;61921;53.226;-1.296;2022-11-20T02:21:14;32;29;
73623;PMS5003;61921;53.226;-1.296;2022-11-20T02:23:38;40;31;
73623;PMS5003;61921;53.226;-1.296;2022-11-20T02:26:04;27;24;
73623;PMS5003;61921;53.226;-1.296;2022-11-20T02:28:28;28;28;
73623;PMS5003;61921;53.226;-1.296;2022-11-20T02:30:54;35;32;
73623;PMS5003;61921;53.226;-1.296;2022-11-20T02:33:20;38;32;
73623;PMS5003;61921;53.226;-1.296;2022-11-20T02:35:45;36;26;
73623;PMS5003;61921;53.226;-1.296;2022-11-20T02:38:11;37;36;
73623;PMS5003;61921;53.226;-1.296;2022-11-20T02:40:36;31;27;
73623;PMS5003;61921;53.226;-1.296;2022-11-20T02:43:02;29;26;
73623;PMS5003;61921;53.226;-1.296;2022-11-20T02:45:28;36;28;
73623;PMS5003;61921;53.226;-1.296;2022-11-20T02:47:53;30;25;
73623;PMS5003;61921;53.226;-1.296;2022-11-20T02:50:24;34;25;
73623;PMS5003;61921;53.226;-1.296;2022-11-20T02:52:44;27;24;
73623;PMS5003;61921;53.226;-1.296;2022-11-20T02:55:15;38;30;
73623;PMS5003;61921;53.226;-1.296;2022-11-20T02:57:36;34;27;
73623;PMS5003;61921;53.226;-1.296;2022-11-20T03:00:01;29;26;
73623;PMS5003;61921;53.226;-1.296;2022-11-20T03:02:29;38;27;
73623;PMS5003;61921;53.226;-1.296;2022-11-20T03:04:52;27;24;
73623;PMS5003;61921;53.226;-1.296;2022-11-20T03:07:17;34;28;
73623;PMS5003;61921;53.226;-1.296;2022-11-20T03:09:43;23;22;
73623;PMS5003;61921;53.226;-1.296;2022-11-20T03:12:08;28;26;
73623;PMS5003;61921;53.226;-1.296;2022-11-20T03:14:34;31;27;
73623;PMS5003;61921;53.226;-1.296;2022-11-20T03:16:59;24;23;
73623;PMS5003;61921;53.226;-1.296;2022-11-20T03:19:24;23;21;
73623;PMS5003;61921;53.226;-1.296;2022-11-20T03:21:50;24;21;
73623;PMS5003;61921;53.226;-1.296;2022-11-20T03:24:15;25;24;
73623;PMS5003;61921;53.226;-1.296;2022-11-20T03:26:41;24;23;
73623;PMS5003;61921;53.226;-1.296;2022-11-20T03:29:06;26;22;
73623;PMS5003;61921;53.226;-1.296;2022-11-20T03:31:33;25;24;
73623;PMS5003;61921;53.226;-1.296;2022-11-20T03:33:57;25;24;
73623;PMS5003;61921;53.226;-1.296;2022-11-20T03:36:22;28;24;
73623;PMS5003;61921;53.226;-1.296;2022-11-20T03:38:48;27;24;
73623;PMS5003;61921;53.226;-1.296;2022-11-20T03:41:16;24;21;
73623;PMS5003;61921;53.226;-1.296;2022-11-20T03:43:46;23;19;
73623;PMS5003;61921;53.226;-1.296;2022-11-20T03:46:10;27;23;
73623;PMS5003;61921;53.226;-1.296;2022-11-20T03:48:30;24;22;
73623;PMS5003;61921;53.226;-1.296;2022-11-20T03:53:21;24;20;
73623;PMS5003;61921;53.226;-1.296;2022-11-20T03:55:50;21;20;
73623;PMS5003;61921;53.226;-1.296;2022-11-20T03:58:11;21;20;
73623;PMS5003;61921;53.226;-1.296;2022-11-20T04:00:36;20;17;
73623;PMS5003;61921;53.226;-1.296;2022-11-20T04:03:02;17;15;
73623;PMS5003;61921;53.226;-1.296;2022-11-20T04:05:28;19;16;
73623;PMS5003;61921;53.226;-1.296;2022-11-20T04:07:53;21;16;
73623;PMS5003;61921;53.226;-1.296;2022-11-20T04:10:19;21;17;
73623;PMS5003;61921;53.226;-1.296;2022-11-20T04:12:45;17;17;
73623;PMS5003;61921;53.226;-1.296;2022-11-20T04:15:11;18;17;
73623;PMS5003;61921;53.226;-1.296;2022-11-20T04:17:36;18;17;
73623;PMS5003;61921;53.226;-1.296;2022-11-20T04:20:02;20;18;
73623;PMS5003;61921;53.226;-1.296;2022-11-20T04:22:27;20;17;
73623;PMS5003;61921;53.226;-1.296;2022-11-20T04:24:52;19;17;
73623;PMS5003;61921;53.226;-1.296;2022-11-20T04:27:18;20;19;
73623;PMS5003;61921;53.226;-1.296;2022-11-20T04:29:43;28;20;
73623;PMS5003;61921;53.226;-1.296;2022-11-20T04:32:09;20;19;
73623;PMS5003;61921;53.226;-1.296;2022-11-20T04:39:26;20;18;
73623;PMS5003;61921;53.226;-1.296;2022-11-20T04:41:51;18;17;
73623;PMS5003;61921;53.226;-1.296;2022-11-20T04:44:17;19;18;
73623;PMS5003;61921;53.226;-1.296;2022-11-20T04:46:42;13;12;
73623;PMS5003;61921;53.226;-1.296;2022-11-20T04:49:08;13;12;
73623;PMS5003;61921;53.226;-1.296;2022-11-20T04:51:33;20;16;
73623;PMS5003;61921;53.226;-1.296;2022-11-20T04:53:59;19;15;
73623;PMS5003;61921;53.226;-1.296;2022-11-20T04:56:24;16;11;
73623;PMS5003;61921;53.226;-1.296;2022-11-20T04:58:49;18;17;
73623;PMS5003;61921;53.226;-1.296;2022-11-20T05:01:16;19;16;
73623;PMS5003;61921;53.226;-1.296;2022-11-20T05:03:41;20;19;
73623;PMS5003;61921;53.226;-1.296;2022-11-20T05:06:06;11;11;
73623;PMS5003;61921;53.226;-1.296;2022-11-20T05:08:31;21;18;
73623;PMS5003;61921;53.226;-1.296;2022-11-20T05:10:59;28;25;
73623;PMS5003;61921;53.226;-1.296;2022-11-20T05:13:21;10;10;
73623;PMS5003;61921;53.226;-1.296;2022-11-20T05:15:47;19;19;
73623;PMS5003;61921;53.226;-1.296;2022-11-20T05:18:13;24;20;
73623;PMS5003;61921;53.226;-1.296;2022-11-20T05:20:38;24;22;
73623;PMS5003;61921;53.226;-1.296;2022-11-20T05:23:04;21;19;
73623;PMS5003;61921;53.226;-1.296;2022-11-20T05:25:29;22;19;
73623;PMS5003;61921;53.226;-1.296;2022-11-20T05:27:55;20;17;
73623;PMS5003;61921;53.226;-1.296;2022-11-20T05:30:20;13;12;
73623;PMS5003;61921;53.226;-1.296;2022-11-20T05:32:46;10;10;
73623;PMS5003;61921;53.226;-1.296;2022-11-20T05:35:11;18;13;
73623;PMS5003;61921;53.226;-1.296;2022-11-20T05:37:36;19;16;
73623;PMS5003;61921;53.226;-1.296;2022-11-20T05:40:02;7;7;
73623;PMS5003;61921;53.226;-1.296;2022-11-20T05:42:29;10;8;
73623;PMS5003;61921;53.226;-1.296;2022-11-20T05:44:53;9;7;
73623;PMS5003;61921;53.226;-1.296;2022-11-20T05:47:18;9;7;
73623;PMS5003;61921;53.226;-1.296;2022-11-20T05:49:44;6;6;
73623;PMS5003;61921;53.226;-1.296;2022-11-20T05:52:09;8;8;
73623;PMS5003;61921;53.226;-1.296;2022-11-20T05:54:35;8;8;
73623;PMS5003;61921;53.226;-1.296;2022-11-20T05:57:00;8;8;
73623;PMS5003;61921;53.226;-1.296;2022-11-20T05:59:26;6;6;
73623;PMS5003;61921;53.226;-1.296;2022-11-20T06:01:51;6;6;
73623;PMS5003;61921;53.226;-1.296;2022-11-20T06:04:17;8;8;
73623;PMS5003;61921;53.226;-1.296;2022-11-20T06:06:42;6;5;
73623;PMS5003;61921;53.226;-1.296;2022-11-20T06:09:08;6;6;
73623;PMS5003;61921;53.226;-1.296;2022-11-20T06:11:33;5;5;
73623;PMS5003;61921;53.226;-1.296;2022-11-20T06:13:59;6;6;
73623;PMS5003;61921;53.226;-1.296;2022-11-20T06:16:24;7;7;
73623;PMS5003;61921;53.226;-1.296;2022-11-20T06:18:50;10;9;
73623;PMS5003;61921;53.226;-1.296;2022-11-20T06:21:16;6;6;
73623;PMS5003;61921;53.226;-1.296;2022-11-20T06:23:41;6;5;
73623;PMS5003;61921;53.226;-1.296;2022-11-20T06:26:07;6;6;
73623;PMS5003;61921;53.226;-1.296;2022-11-20T06:28:32;8;8;
73623;PMS5003;61921;53.226;-1.296;2022-11-20T06:30:57;8;6;
73623;PMS5003;61921;53.226;-1.296;2022-11-20T06:33:23;9;7;
73623;PMS5003;61921;53.226;-1.296;2022-11-20T06:35:48;6;5;
73623;PMS5003;61921;53.226;-1.296;2022-11-20T06:38:14;7;7;
73623;PMS5003;61921;53.226;-1.296;2022-11-20T06:40:40;9;7;
73623;PMS5003;61921;53.226;-1.296;2022-11-20T06:43:05;5;5;
73623;PMS5003;61921;53.226;-1.296;2022-11-20T06:45:30;9;7;
73623;PMS5003;61921;53.226;-1.296;2022-11-20T06:47:57;9;9;
73623;PMS5003;61921;53.226;-1.296;2022-11-20T06:50:21;10;9;
73623;PMS5003;61921;53.226;-1.296;2022-11-20T06:52:47;15;13;
73623;PMS5003;61921;53.226;-1.296;2022-11-20T06:55:12;12;11;
73623;PMS5003;61921;53.226;-1.296;2022-11-20T06:57:38;12;11;
73623;PMS5003;61921;53.226;-1.296;2022-11-20T07:00:04;12;11;
73623;PMS5003;61921;53.226;-1.296;2022-11-20T07:02:29;13;11;
73623;PMS5003;61921;53.226;-1.296;2022-11-20T07:04:55;18;14;
73623;PMS5003;61921;53.226;-1.296;2022-11-20T07:07:20;13;12;
73623;PMS5003;61921;53.226;-1.296;2022-11-20T07:09:45;12;12;
73623;PMS5003;61921;53.226;-1.296;2022-11-20T07:12:11;12;9;
73623;PMS5003;61921;53.226;-1.296;2022-11-20T07:14:36;13;12;
73623;PMS5003;61921;53.226;-1.296;2022-11-20T07:17:02;12;11;
73623;PMS5003;61921;53.226;-1.296;2022-11-20T07:19:27;12;10;
73623;PMS5003;61921;53.226;-1.296;2022-11-20T07:21:53;11;11;
73623;PMS5003;61921;53.226;-1.296;2022-11-20T07:24:18;16;14;
73623;PMS5003;61921;53.226;-1.296;2022-11-20T07:26:45;16;15;
73623;PMS5003;61921;53.226;-1.296;2022-11-20T07:29:09;12;12;
73623;PMS5003;61921;53.226;-1.296;2022-11-20T07:31:34;16;15;
73623;PMS5003;61921;53.226;-1.296;2022-11-20T07:34:00;14;14;
73623;PMS5003;61921;53.226;-1.296;2022-11-20T07:36:25;16;14;
73623;PMS5003;61921;53.226;-1.296;2022-11-20T07:38:51;14;13;
73623;PMS5003;61921;53.226;-1.296;2022-11-20T07:41:17;16;16;
73623;PMS5003;61921;53.226;-1.296;2022-11-20T07:43:42;20;20;
73623;PMS5003;61921;53.226;-1.296;2022-11-20T07:46:07;15;14;
73623;PMS5003;61921;53.226;-1.296;2022-11-20T07:48:33;18;18;
73623;PMS5003;61921;53.226;-1.296;2022-11-20T07:50:58;16;16;
73623;PMS5003;61921;53.226;-1.296;2022-11-20T07:53:23;19;16;
73623;PMS5003;61921;53.226;-1.296;2022-11-20T07:55:49;21;20;
73623;PMS5003;61921;53.226;-1.296;2022-11-20T07:58:14;16;15;
73623;PMS5003;61921;53.226;-1.296;2022-11-20T08:00:40;16;15;
73623;PMS5003;61921;53.226;-1.296;2022-11-20T08:03:06;15;15;
73623;PMS5003;61921;53.226;-1.296;2022-11-20T08:05:31;14;14;
73623;PMS5003;61921;53.226;-1.296;2022-11-20T08:07:56;19;19;
73623;PMS5003;61921;53.226;-1.296;2022-11-20T08:10:21;20;14;
73623;PMS5003;61921;53.226;-1.296;2022-11-20T08:12:47;15;13;
73623;PMS5003;61921;53.226;-1.296;2022-11-20T08:15:12;19;19;
73623;PMS5003;61921;53.226;-1.296;2022-11-20T08:17:38;18;15;
73623;PMS5003;61921;53.226;-1.296;2022-11-20T08:20:03;20;15;
73623;PMS5003;61921;53.226;-1.296;2022-11-20T08:22:29;19;18;
73623;PMS5003;61921;53.226;-1.296;2022-11-20T08:24:54;16;15;
73623;PMS5003;61921;53.226;-1.296;2022-11-20T08:27:20;16;15;
73623;PMS5003;61921;53.226;-1.296;2022-11-20T08:29:45;12;12;
73623;PMS5003;61921;53.226;-1.296;2022-11-20T08:32:11;19;13;
73623;PMS5003;61921;53.226;-1.296;2022-11-20T08:34:36;13;12;
73623;PMS5003;61921;53.226;-1.296;2022-11-20T08:37:02;12;12;
73623;PMS5003;61921;53.226;-1.296;2022-11-20T08:39:27;13;11;
73623;PMS5003;61921;53.226;-1.296;2022-11-20T08:41:52;11;10;
73623;PMS5003;61921;53.226;-1.296;2022-11-20T08:44:17;15;12;
73623;PMS5003;61921;53.226;-1.296;2022-11-20T08:46:43;16;12;
73623;PMS5003;61921;53.226;-1.296;2022-11-20T08:49:09;6;6;
73623;PMS5003;61921;53.226;-1.296;2022-11-20T08:51:34;12;9;
73623;PMS5003;61921;53.226;-1.296;2022-11-20T08:53:59;9;8;
73623;PMS5003;61921;53.226;-1.296;2022-11-20T08:56:24;6;6;
73623;PMS5003;61921;53.226;-1.296;2022-11-20T08:58:50;13;9;
73623;PMS5003;61921;53.226;-1.296;2022-11-20T09:01:15;9;9;
73623;PMS5003;61921;53.226;-1.296;2022-11-20T09:03:41;11;8;
73623;PMS5003;61921;53.226;-1.296;2022-11-20T09:06:06;9;9;
73623;PMS5003;61921;53.226;-1.296;2022-11-20T09:08:32;11;9;
73623;PMS5003;61921;53.226;-1.296;2022-11-20T09:10:57;10;9;
73623;PMS5003;61921;53.226;-1.296;2022-11-20T09:13:23;11;9;
73623;PMS5003;61921;53.226;-1.296;2022-11-20T09:15:52;10;8;
73623;PMS5003;61921;53.226;-1.296;2022-11-20T09:18:13;8;7;
73623;PMS5003;61921;53.226;-1.296;2022-11-20T09:20:39;14;10;
73623;PMS5003;61921;53.226;-1.296;2022-11-20T09:23:10;10;7;
73623;PMS5003;61921;53.226;-1.296;2022-11-20T09:25:30;9;9;
73623;PMS5003;61921;53.226;-1.296;2022-11-20T09:27:55;11;8;
73623;PMS5003;61921;53.226;-1.296;2022-11-20T09:30:21;6;6;
73623;PMS5003;61921;53.226;-1.296;2022-11-20T09:32:46;10;8;
73623;PMS5003;61921;53.226;-1.296;2022-11-20T09:35:11;9;8;
73623;PMS5003;61921;53.226;-1.296;2022-11-20T09:37:37;10;10;
73623;PMS5003;61921;53.226;-1.296;2022-11-20T09:40:03;9;9;
73623;PMS5003;61921;53.226;-1.296;2022-11-20T09:42:31;9;9;
73623;PMS5003;61921;53.226;-1.296;2022-11-20T09:44:57;9;7;
73623;PMS5003;61921;53.226;-1.296;2022-11-20T09:47:21;6;3;
73623;PMS5003;61921;53.226;-1.296;2022-11-20T09:49:51;5;5;
73623;PMS5003;61921;53.226;-1.296;2022-11-20T09:52:12;8;5;
73623;PMS5003;61921;53.226;-1.296;2022-11-20T09:54:35;4;4;
73623;PMS5003;61921;53.226;-1.296;2022-11-20T09:57:02;7;5;
73623;PMS5003;61921;53.226;-1.296;2022-11-20T09:59:30;7;5;
73623;PMS5003;61921;53.226;-1.296;2022-11-20T10:01:51;7;6;
73623;PMS5003;61921;53.226;-1.296;2022-11-20T10:04:16;6;6;
73623;PMS5003;61921;53.226;-1.296;2022-11-20T10:06:42;8;5;
73623;PMS5003;61921;53.226;-1.296;2022-11-20T10:11:34;5;4;
73623;PMS5003;61921;53.226;-1.296;2022-11-20T10:13:59;7;7;
73623;PMS5003;61921;53.226;-1.296;2022-11-20T10:16:24;11;7;
73623;PMS5003;61921;53.226;-1.296;2022-11-20T10:18:51;9;6;
73623;PMS5003;61921;53.226;-1.296;2022-11-20T10:21:15;6;6;
73623;PMS5003;61921;53.226;-1.296;2022-11-20T10:23:47;9;6;
73623;PMS5003;61921;53.226;-1.296;2022-11-20T10:26:07;7;5;
73623;PMS5003;61921;53.226;-1.296;2022-11-20T10:28:34;5;3;
73623;PMS5003;61921;53.226;-1.296;2022-11-20T10:30:56;8;6;
73623;PMS5003;61921;53.226;-1.296;2022-11-20T10:33:21;4;3;
73623;PMS5003;61921;53.226;-1.296;2022-11-20T10:35:48;5;4;
73623;PMS5003;61921;53.226;-1.296;2022-11-20T10:38:12;9;4;
73623;PMS5003;61921;53.226;-1.296;2022-11-20T10:40:37;4;4;
73623;PMS5003;61921;53.226;-1.296;2022-11-20T10:43:02;10;4;
73623;PMS5003;61921;53.226;-1.296;2022-11-20T10:45:31;3;3;
73623;PMS5003;61921;53.226;-1.296;2022-11-20T10:47:52;5;4;
73623;PMS5003;61921;53.226;-1.296;2022-11-20T10:50:19;5;3;
73623;PMS5003;61921;53.226;-1.296;2022-11-20T10:52:46;7;4;
73623;PMS5003;61921;53.226;-1.296;2022-11-20T10:55:11;7;5;
73623;PMS5003;61921;53.226;-1.296;2022-11-20T10:57:39;6;4;
73623;PMS5003;61921;53.226;-1.296;2022-11-20T11:00:02;9;5;
73623;PMS5003;61921;53.226;-1.296;2022-11-20T11:02:31;10;5;
73623;PMS5003;61921;53.226;-1.296;2022-11-20T11:04:50;9;4;
73623;PMS5003;61921;53.226;-1.296;2022-11-20T11:07:16;6;4;
73623;PMS5003;61921;53.226;-1.296;2022-11-20T11:09:42;8;6;
73623;PMS5003;61921;53.226;-1.296;2022-11-20T11:12:07;6;4;
73623;PMS5003;61921;53.226;-1.296;2022-11-20T11:14:31;7;5;
73623;PMS5003;61921;53.226;-1.296;2022-11-20T11:16:57;8;5;
73623;PMS5003;61921;53.226;-1.296;2022-11-20T11:19:22;6;6;
73623;PMS5003;61921;53.226;-1.296;2022-11-20T11:21:47;10;4;
73623;PMS5003;61921;53.226;-1.296;2022-11-20T11:24:18;7;7;
73623;PMS5003;61921;53.226;-1.296;2022-11-20T11:26:38;6;5;
73623;PMS5003;61921;53.226;-1.296;2022-11-20T11:29:03;5;5;
73623;PMS5003;61921;53.226;-1.296;2022-11-20T11:31:29;4;2;
73623;PMS5003;61921;53.226;-1.296;2022-11-20T11:36:21;8;5;
73623;PMS5003;61921;53.226;-1.296;2022-11-20T11:38:44;2;2;
73623;PMS5003;61921;53.226;-1.296;2022-11-20T11:41:12;5;3;
73623;PMS5003;61921;53.226;-1.296;2022-11-20T11:43:36;7;5;
73623;PMS5003;61921;53.226;-1.296;2022-11-20T11:46:00;7;5;
73623;PMS5003;61921;53.226;-1.296;2022-11-20T11:48:26;7;4;
73623;PMS5003;61921;53.226;-1.296;2022-11-20T11:50:51;6;4;
73623;PMS5003;61921;53.226;-1.296;2022-11-20T11:53:18;5;4;
73623;PMS5003;61921;53.226;-1.296;2022-11-20T11:55:43;4;3;
73623;PMS5003;61921;53.226;-1.296;2022-11-20T11:58:16;5;3;
73623;PMS5003;61921;53.226;-1.296;2022-11-20T12:00:33;4;4;
73623;PMS5003;61921;53.226;-1.296;2022-11-20T12:03:00;6;3;
73623;PMS5003;61921;53.226;-1.296;2022-11-20T12:05:24;4;3;
73623;PMS5003;61921;53.226;-1.296;2022-11-20T12:07:49;4;3;
73623;PMS5003;61921;53.226;-1.296;2022-11-20T12:10:15;6;4;
73623;PMS5003;61921;53.226;-1.296;2022-11-20T12:12:40;7;4;
73623;PMS5003;61921;53.226;-1.296;2022-11-20T12:15:06;6;4;
73623;PMS5003;61921;53.226;-1.296;2022-11-20T12:17:30;2;2;
73623;PMS5003;61921;53.226;-1.296;2022-11-20T12:19:56;10;2;
73623;PMS5003;61921;53.226;-1.296;2022-11-20T12:22:24;3;3;
73623;PMS5003;61921;53.226;-1.296;2022-11-20T12:24:49;3;3;
73623;PMS5003;61921;53.226;-1.296;2022-11-20T12:27:21;3;3;
73623;PMS5003;61921;53.226;-1.296;2022-11-20T12:29:39;9;2;
73623;PMS5003;61921;53.226;-1.296;2022-11-20T12:32:06;5;3;
73623;PMS5003;61921;53.226;-1.296;2022-11-20T12:34:37;3;3;
73623;PMS5003;61921;53.226;-1.296;2022-11-20T12:36:53;4;2;
73623;PMS5003;61921;53.226;-1.296;2022-11-20T12:39:22;5;5;
73623;PMS5003;61921;53.226;-1.296;2022-11-20T12:41:46;2;2;
73623;PMS5003;61921;53.226;-1.296;2022-11-20T12:44:16;3;2;
73623;PMS5003;61921;53.226;-1.296;2022-11-20T12:46:34;8;4;
73623;PMS5003;61921;53.226;-1.296;2022-11-20T12:49:02;4;3;
73623;PMS5003;61921;53.226;-1.296;2022-11-20T12:51:33;4;3;
73623;PMS5003;61921;53.226;-1.296;2022-11-20T12:53:54;1;1;
73623;PMS5003;61921;53.226;-1.296;2022-11-20T12:56:18;5;4;
73623;PMS5003;61921;53.226;-1.296;2022-11-20T12:58:43;5;3;
73623;PMS5003;61921;53.226;-1.296;2022-11-20T13:01:08;2;2;
73623;PMS5003;61921;53.226;-1.296;2022-11-20T13:03:35;5;2;
73623;PMS5003;61921;53.226;-1.296;2022-11-20T13:05:59;5;2;
73623;PMS5003;61921;53.226;-1.296;2022-11-20T13:08:23;6;2;
73623;PMS5003;61921;53.226;-1.296;2022-11-20T13:10:49;3;3;
73623;PMS5003;61921;53.226;-1.296;2022-11-20T13:13:13;9;5;
73623;PMS5003;61921;53.226;-1.296;2022-11-20T13:15:42;5;5;
73623;PMS5003;61921;53.226;-1.296;2022-11-20T13:18:04;4;2;
73623;PMS5003;61921;53.226;-1.296;2022-11-20T13:20:29;9;4;
73623;PMS5003;61921;53.226;-1.296;2022-11-20T13:22:54;8;6;
73623;PMS5003;61921;53.226;-1.296;2022-11-20T13:25:23;5;3;
73623;PMS5003;61921;53.226;-1.296;2022-11-20T13:27:46;4;3;
73623;PMS5003;61921;53.226;-1.296;2022-11-20T13:30:13;5;2;
73623;PMS5003;61921;53.226;-1.296;2022-11-20T13:32:35;5;4;
73623;PMS5003;61921;53.226;-1.296;2022-11-20T13:35:01;10;4;
73623;PMS5003;61921;53.226;-1.296;2022-11-20T13:37:27;3;3;
73623;PMS5003;61921;53.226;-1.296;2022-11-20T13:39:51;3;3;
73623;PMS5003;61921;53.226;-1.296;2022-11-20T13:42:20;4;4;
73623;PMS5003;61921;53.226;-1.296;2022-11-20T13:44:43;4;3;
73623;PMS5003;61921;53.226;-1.296;2022-11-20T13:49:33;12;10;
73623;PMS5003;61921;53.226;-1.296;2022-11-20T13:52:02;12;6;
73623;PMS5003;61921;53.226;-1.296;2022-11-20T13:54:28;9;7;
73623;PMS5003;61921;53.226;-1.296;2022-11-20T13:56:53;7;5;
73623;PMS5003;61921;53.226;-1.296;2022-11-20T13:59:18;7;4;
73623;PMS5003;61921;53.226;-1.296;2022-11-20T14:01:39;4;3;
73623;PMS5003;61921;53.226;-1.296;2022-11-20T14:04:06;4;3;
73623;PMS5003;61921;53.226;-1.296;2022-11-20T14:06:31;10;7;
73623;PMS5003;61921;53.226;-1.296;2022-11-20T14:08:55;12;8;
73623;PMS5003;61921;53.226;-1.296;2022-11-20T14:11:22;4;4;
73623;PMS5003;61921;53.226;-1.296;2022-11-20T14:13:54;5;3;
73623;PMS5003;61921;53.226;-1.296;2022-11-20T14:16:12;6;6;
73623;PMS5003;61921;53.226;-1.296;2022-11-20T14:18:37;3;3;
73623;PMS5003;61921;53.226;-1.296;2022-11-20T14:21:02;8;4;
73623;PMS5003;61921;53.226;-1.296;2022-11-20T14:23:28;6;3;
73623;PMS5003;61921;53.226;-1.296;2022-11-20T14:25:58;6;4;
73623;PMS5003;61921;53.226;-1.296;2022-11-20T14:28:20;5;3;
73623;PMS5003;61921;53.226;-1.296;2022-11-20T14:30:44;8;6;
73623;PMS5003;61921;53.226;-1.296;2022-11-20T14:33:09;6;6;
73623;PMS5003;61921;53.226;-1.296;2022-11-20T14:35:35;7;5;
73623;PMS5003;61921;53.226;-1.296;2022-11-20T14:38:00;3;3;
73623;PMS5003;61921;53.226;-1.296;2022-11-20T14:40:27;5;4;
73623;PMS5003;61921;53.226;-1.296;2022-11-20T14:42:50;5;4;
73623;PMS5003;61921;53.226;-1.296;2022-11-20T14:45:16;7;4;
73623;PMS5003;61921;53.226;-1.296;2022-11-20T14:47:41;8;4;
73623;PMS5003;61921;53.226;-1.296;2022-11-20T14:50:07;11;6;
73623;PMS5003;61921;53.226;-1.296;2022-11-20T14:52:32;7;5;
73623;PMS5003;61921;53.226;-1.296;2022-11-20T14:54:57;25;23;
73623;PMS5003;61921;53.226;-1.296;2022-11-20T14:57:24;11;8;
73623;PMS5003;61921;53.226;-1.296;2022-11-20T14:59:48;18;10;
73623;PMS5003;61921;53.226;-1.296;2022-11-20T15:02:13;22;13;
73623;PMS5003;61921;53.226;-1.296;2022-11-20T15:07:03;22;21;
73623;PMS5003;61921;53.226;-1.296;2022-11-20T15:09:29;36;34;
73623;PMS5003;61921;53.226;-1.296;2022-11-20T15:11:55;36;32;
73623;PMS5003;61921;53.226;-1.296;2022-11-20T15:14:20;26;25;
73623;PMS5003;61921;53.226;-1.296;2022-11-20T15:16:45;31;28;
73623;PMS5003;61921;53.226;-1.296;2022-11-20T15:19:13;31;28;
73623;PMS5003;61921;53.226;-1.296;2022-11-20T15:21:36;18;16;
73623;PMS5003;61921;53.226;-1.296;2022-11-20T15:24:02;8;8;
73623;PMS5003;61921;53.226;-1.296;2022-11-20T15:26:27;12;9;
73623;PMS5003;61921;53.226;-1.296;2022-11-20T15:28:54;13;8;
73623;PMS5003;61921;53.226;-1.296;2022-11-20T15:31:19;8;8;
73623;PMS5003;61921;53.226;-1.296;2022-11-20T15:33:43;10;6;
73623;PMS5003;61921;53.226;-1.296;2022-11-20T15:36:09;9;5;
73623;PMS5003;61921;53.226;-1.296;2022-11-20T15:38:34;8;6;
73623;PMS5003;61921;53.226;-1.296;2022-11-20T15:40:59;7;6;
73623;PMS5003;61921;53.226;-1.296;2022-11-20T15:43:25;7;6;
73623;PMS5003;61921;53.226;-1.296;2022-11-20T15:45:51;8;7;
73623;PMS5003;61921;53.226;-1.296;2022-11-20T15:48:16;15;12;
73623;PMS5003;61921;53.226;-1.296;2022-11-20T15:50:42;12;11;
73623;PMS5003;61921;53.226;-1.296;2022-11-20T15:53:07;18;16;
73623;PMS5003;61921;53.226;-1.296;2022-11-20T15:55:31;10;10;
73623;PMS5003;61921;53.226;-1.296;2022-11-20T15:57:57;5;4;
73623;PMS5003;61921;53.226;-1.296;2022-11-20T16:00:22;6;5;
73623;PMS5003;61921;53.226;-1.296;2022-11-20T16:02:52;6;5;
73623;PMS5003;61921;53.226;-1.296;2022-11-20T16:05:13;7;5;
73623;PMS5003;61921;53.226;-1.296;2022-11-20T16:07:38;3;3;
73623;PMS5003;61921;53.226;-1.296;2022-11-20T16:10:04;8;5;
73623;PMS5003;61921;53.226;-1.296;2022-11-20T16:12:29;4;4;
73623;PMS5003;61921;53.226;-1.296;2022-11-20T16:14:55;4;4;
73623;PMS5003;61921;53.226;-1.296;2022-11-20T16:17:21;6;5;
73623;PMS5003;61921;53.226;-1.296;2022-11-20T16:19:46;10;9;